createdAt,value
2023-10-21T00:02:19.475Z,83.75
2023-10-21T00:04:46.070Z,83.89
2023-10-21T00:07:12.365Z,83.68
2023-10-21T00:09:38.816Z,83.61
2023-10-21T00:12:07.170Z,84.03
2023-10-21T00:14:34.349Z,84.36
2023-10-21T00:17:00.857Z,84.62
2023-10-21T00:19:27.429Z,84.39
2023-10-21T00:21:54.162Z,84.27
2023-10-21T00:24:21.023Z,84.12
2023-10-21T00:26:48.797Z,84.25
2023-10-21T00:29:16.608Z,84.09
2023-10-21T00:31:46.524Z,84.13
2023-10-21T00:34:13.081Z,84.24
2023-10-21T00:36:39.333Z,84.31
2023-10-21T00:39:11.367Z,84.80
2023-10-21T00:41:39.074Z,84.60
2023-10-21T00:44:05.994Z,84.75
2023-10-21T00:46:32.555Z,84.55
2023-10-21T00:48:59.311Z,84.46
2023-10-21T00:51:26.293Z,84.36
2023-10-21T00:53:53.392Z,84.13
2023-10-21T00:56:20.039Z,84.23
2023-10-21T00:58:46.259Z,84.09
2023-10-21T01:01:13.952Z,84.00
2023-10-21T01:03:40.894Z,83.99
2023-10-21T01:06:07.679Z,83.97
2023-10-21T01:08:43.924Z,84.29
2023-10-21T01:11:11.132Z,84.49
2023-10-21T01:13:37.571Z,84.40
2023-10-21T01:16:06.094Z,84.16
2023-10-21T01:18:38.624Z,84.28
2023-10-21T01:21:05.588Z,84.17
2023-10-21T01:23:34.297Z,84.48
2023-10-21T01:26:01.405Z,84.55
2023-10-21T01:28:29.416Z,84.01
2023-10-21T01:30:55.860Z,84.13
2023-10-21T01:33:22.519Z,84.16
2023-10-21T01:35:49.150Z,84.35
2023-10-21T01:38:15.568Z,84.43
2023-10-21T01:40:42.025Z,84.71
2023-10-21T01:43:08.338Z,84.60
2023-10-21T01:45:38.325Z,84.34
2023-10-21T01:48:05.894Z,84.35
2023-10-21T01:50:32.860Z,84.48
2023-10-21T01:52:59.066Z,84.50
2023-10-21T01:55:25.465Z,84.98
2023-10-21T01:57:51.879Z,84.89
2023-10-21T02:00:21.294Z,84.58
2023-10-21T02:02:53.982Z,84.37
2023-10-21T02:05:22.518Z,84.55
2023-10-21T02:07:49.552Z,84.74
2023-10-21T02:10:17.777Z,85.35
2023-10-21T02:12:44.155Z,85.30
2023-10-21T02:15:15.491Z,85.31
2023-10-21T02:17:43.672Z,85.64
2023-10-21T02:20:13.222Z,85.58
2023-10-21T02:22:39.758Z,85.58
2023-10-21T02:25:14.823Z,85.89
2023-10-21T02:27:42.174Z,85.93
2023-10-21T02:30:13.037Z,85.74
2023-10-21T02:32:43.853Z,85.54
2023-10-21T02:35:10.365Z,86.03
2023-10-21T02:37:36.589Z,86.39
2023-10-21T02:40:04.381Z,86.39
2023-10-21T02:42:31.677Z,86.00
2023-10-21T02:44:58.300Z,86.35
2023-10-21T02:47:25.125Z,86.25
2023-10-21T02:49:51.424Z,85.95
2023-10-21T02:52:18.060Z,85.51
2023-10-21T02:54:44.246Z,85.49
2023-10-21T02:57:10.653Z,85.76
2023-10-21T02:59:36.924Z,85.82
2023-10-21T03:02:03.540Z,85.60
2023-10-21T03:04:29.786Z,85.20
2023-10-21T03:06:56.799Z,84.98
2023-10-21T03:09:23.659Z,84.95
2023-10-21T03:11:50.006Z,84.93
2023-10-21T03:14:16.204Z,84.93
2023-10-21T03:16:43.320Z,85.34
2023-10-21T03:19:10.566Z,85.32
2023-10-21T03:21:36.858Z,85.44
2023-10-21T03:24:04.033Z,85.68
2023-10-21T03:26:30.286Z,85.81
2023-10-21T03:28:57.623Z,85.58
2023-10-21T03:31:23.988Z,85.50
2023-10-21T03:33:50.211Z,85.55
2023-10-21T03:36:16.566Z,85.65
2023-10-21T03:38:42.976Z,85.58
2023-10-21T03:41:13.039Z,85.67
2023-10-21T03:43:39.506Z,85.38
2023-10-21T03:46:08.182Z,85.62
2023-10-21T03:48:35.031Z,85.94
2023-10-21T03:51:12.388Z,85.80
2023-10-21T03:53:41.052Z,85.97
2023-10-21T03:56:09.000Z,86.28
2023-10-21T03:58:36.385Z,86.29
2023-10-21T04:01:02.963Z,86.19
2023-10-21T04:03:29.882Z,86.34
2023-10-21T04:05:57.032Z,86.16
2023-10-21T04:08:24.410Z,86.61
2023-10-21T04:10:53.227Z,86.36
2023-10-21T04:13:19.843Z,86.03
2023-10-21T04:15:46.103Z,85.97
2023-10-21T04:18:13.079Z,85.93
2023-10-21T04:20:39.871Z,85.90
2023-10-21T04:23:06.203Z,85.84
2023-10-21T04:25:33.528Z,85.92
2023-10-21T04:27:59.892Z,85.85
2023-10-21T04:30:26.274Z,86.01
2023-10-21T04:32:52.917Z,85.99
2023-10-21T04:35:19.907Z,86.22
2023-10-21T04:37:46.240Z,86.73
2023-10-21T04:40:13.954Z,86.55
2023-10-21T04:42:40.418Z,86.32
2023-10-21T04:45:08.744Z,86.43
2023-10-21T04:47:35.226Z,86.51
2023-10-21T04:50:01.682Z,86.48
2023-10-21T04:52:28.102Z,86.22
2023-10-21T04:54:54.341Z,85.87
2023-10-21T04:57:20.533Z,85.84
2023-10-21T04:59:47.020Z,86.29
2023-10-21T05:02:13.399Z,87.00
2023-10-21T05:04:40.793Z,86.80
2023-10-21T05:07:07.728Z,86.47
2023-10-21T05:09:33.959Z,86.21
2023-10-21T05:12:02.977Z,86.24
2023-10-21T05:14:29.314Z,86.18
2023-10-21T05:16:55.937Z,86.23
2023-10-21T05:19:23.650Z,86.37
2023-10-21T05:21:50.537Z,86.60
2023-10-21T05:24:16.918Z,86.94
2023-10-21T05:26:43.099Z,86.96
2023-10-21T05:29:12.568Z,86.79
2023-10-21T05:31:39.083Z,86.71
2023-10-21T05:34:05.475Z,86.78
2023-10-21T05:36:31.704Z,87.23
2023-10-21T05:38:58.062Z,87.41
2023-10-21T05:41:24.456Z,87.54
2023-10-21T05:43:50.673Z,87.73
2023-10-21T05:46:16.900Z,87.92
2023-10-21T05:48:43.339Z,88.25
2023-10-21T05:51:09.553Z,88.10
2023-10-21T05:53:35.892Z,87.99
2023-10-21T05:56:02.435Z,88.07
2023-10-21T05:58:33.067Z,88.18
2023-10-21T06:01:11.101Z,87.80
2023-10-21T06:03:37.978Z,87.62
2023-10-21T06:06:04.420Z,88.01
2023-10-21T06:08:30.972Z,87.73
2023-10-21T06:10:57.292Z,87.77
2023-10-21T06:13:25.199Z,87.87
2023-10-21T06:15:52.425Z,88.15
2023-10-21T06:18:19.813Z,88.47
2023-10-21T06:20:49.720Z,88.25
2023-10-21T06:23:16.858Z,88.20
2023-10-21T06:25:44.007Z,88.19
2023-10-21T06:28:11.884Z,88.09
2023-10-21T06:30:38.937Z,88.25
2023-10-21T06:33:05.333Z,88.42
2023-10-21T06:35:31.574Z,88.47
2023-10-21T06:37:57.897Z,88.40
2023-10-21T06:40:39.714Z,88.14
2023-10-21T06:43:10.573Z,88.21
2023-10-21T06:45:39.966Z,88.51
2023-10-21T06:48:07.220Z,88.70
2023-10-21T06:50:35.767Z,88.85
2023-10-21T06:53:02.092Z,89.14
2023-10-21T06:55:28.279Z,89.39
2023-10-21T06:57:54.551Z,89.34
2023-10-21T07:00:20.847Z,89.45
2023-10-21T07:02:47.406Z,89.66
2023-10-21T07:05:13.941Z,89.79
2023-10-21T07:07:41.903Z,89.70
2023-10-21T07:10:10.302Z,89.73
2023-10-21T07:12:37.735Z,89.54
2023-10-21T07:15:04.942Z,89.89
2023-10-21T07:17:33.091Z,90.03
2023-10-21T07:19:59.615Z,89.95
2023-10-21T07:22:26.362Z,89.82
2023-10-21T07:24:56.681Z,89.76
2023-10-21T07:27:24.979Z,89.41
2023-10-21T07:29:51.301Z,89.42
2023-10-21T07:32:17.566Z,89.58
2023-10-21T07:34:44.977Z,89.82
2023-10-21T07:37:11.282Z,89.57
2023-10-21T07:39:37.534Z,90.00
2023-10-21T07:42:05.190Z,90.08
2023-10-21T07:44:31.489Z,90.32
2023-10-21T07:46:57.953Z,90.24
2023-10-21T07:49:24.809Z,90.18
2023-10-21T07:51:51.499Z,90.67
2023-10-21T07:54:17.718Z,90.57
2023-10-21T07:56:50.778Z,90.83
2023-10-21T07:59:18.108Z,90.79
2023-10-21T08:01:44.349Z,90.73
2023-10-21T08:04:11.417Z,90.82
2023-10-21T08:06:38.236Z,90.76
2023-10-21T08:09:04.996Z,90.68
2023-10-21T08:11:32.782Z,90.99
2023-10-21T08:13:59.166Z,90.92
2023-10-21T08:16:25.426Z,90.63
2023-10-21T08:18:52.170Z,90.59
2023-10-21T08:21:18.745Z,90.53
2023-10-21T08:23:45.022Z,90.49
2023-10-21T08:26:11.334Z,90.69
2023-10-21T08:28:37.842Z,90.68
2023-10-21T08:31:04.115Z,90.57
2023-10-21T08:33:30.569Z,90.72
2023-10-21T08:35:56.796Z,90.53
2023-10-21T08:38:23.159Z,90.50
2023-10-21T08:40:49.531Z,90.61
2023-10-21T08:43:19.059Z,90.70
2023-10-21T08:45:46.499Z,90.57
2023-10-21T08:48:13.960Z,90.44
2023-10-21T08:50:41.266Z,90.76
2023-10-21T08:53:13.663Z,90.70
2023-10-21T08:55:40.430Z,90.57
2023-10-21T08:58:07.641Z,90.36
2023-10-21T09:00:34.696Z,90.21
2023-10-21T09:03:02.721Z,90.24
2023-10-21T09:05:29.225Z,90.09
2023-10-21T09:07:55.384Z,90.40
2023-10-21T09:10:21.820Z,90.47
2023-10-21T09:12:48.124Z,90.59
2023-10-21T09:15:14.562Z,90.47
2023-10-21T09:17:45.758Z,90.15
2023-10-21T09:20:14.126Z,90.22
2023-10-21T09:22:43.739Z,90.44
2023-10-21T09:25:21.319Z,90.41
2023-10-21T09:27:53.579Z,90.32
2023-10-21T09:30:30.010Z,90.82
2023-10-21T09:33:08.249Z,90.79
2023-10-21T09:35:38.267Z,90.98
2023-10-21T09:38:19.240Z,91.27
2023-10-21T09:40:46.133Z,91.40
2023-10-21T09:43:13.500Z,91.21
2023-10-21T09:45:44.959Z,91.47
2023-10-21T09:48:14.978Z,91.63
2023-10-21T09:51:06.610Z,91.87
2023-10-21T09:53:41.361Z,92.40
2023-10-21T09:56:12.091Z,92.69
2023-10-21T09:58:41.040Z,92.82
2023-10-21T10:01:11.251Z,93.13
2023-10-21T10:03:39.779Z,93.55
2023-10-21T10:06:08.150Z,93.73
2023-10-21T10:08:36.089Z,93.90
2023-10-21T10:11:12.359Z,94.17
2023-10-21T10:13:48.483Z,94.35
2023-10-21T10:16:24.235Z,94.65
2023-10-21T10:18:52.313Z,94.87
2023-10-21T10:21:19.244Z,94.99
2023-10-21T10:23:50.743Z,95.43
2023-10-21T10:26:38.644Z,95.39
2023-10-21T10:29:26.308Z,95.55
2023-10-21T10:32:15.453Z,95.91
2023-10-21T10:34:54.669Z,96.04
2023-10-21T10:37:50.847Z,96.22
2023-10-21T10:40:21.256Z,96.10
2023-10-21T10:42:47.973Z,96.39
2023-10-21T10:45:15.217Z,96.73
2023-10-21T10:47:41.799Z,96.93
2023-10-21T10:50:18.042Z,96.87
2023-10-21T10:52:46.914Z,96.99
2023-10-21T10:55:15.321Z,97.02
2023-10-21T10:57:43.219Z,96.94
2023-10-21T11:00:11.296Z,97.21
2023-10-21T11:02:43.921Z,97.12
2023-10-21T11:05:21.698Z,97.32
2023-10-21T11:07:53.046Z,97.81
2023-10-21T11:10:25.402Z,97.87
2023-10-21T11:12:52.566Z,98.17
2023-10-21T11:15:19.898Z,98.03
2023-10-21T11:17:52.048Z,97.91
2023-10-21T11:20:19.522Z,98.03
2023-10-21T11:22:45.902Z,97.91
2023-10-21T11:25:12.216Z,97.87
2023-10-21T11:27:40.300Z,98.28
2023-10-21T11:30:11.518Z,98.49
2023-10-21T11:32:38.302Z,98.51
2023-10-21T11:35:05.860Z,98.30
2023-10-21T11:37:32.904Z,98.68
2023-10-21T11:39:59.363Z,98.45
2023-10-21T11:42:25.658Z,98.48
2023-10-21T11:45:00.293Z,98.49
2023-10-21T11:47:28.599Z,98.58
2023-10-21T11:49:55.835Z,98.57
2023-10-21T11:52:24.458Z,98.42
2023-10-21T11:55:12.088Z,98.48
2023-10-21T11:58:02.076Z,98.45
2023-10-21T12:00:46.936Z,98.60
2023-10-21T12:03:43.074Z,98.59
2023-10-21T12:06:28.125Z,98.68
2023-10-21T12:08:54.716Z,98.74
2023-10-21T12:11:41.172Z,98.84
2023-10-21T12:14:10.120Z,98.64
2023-10-21T12:17:07.863Z,98.82
2023-10-21T12:19:40.539Z,99.13
2023-10-21T12:22:25.398Z,98.96
2023-10-21T12:25:10.626Z,98.97
2023-10-21T12:27:36.941Z,99.07
2023-10-21T12:30:18.481Z,99.06
2023-10-21T12:33:04.026Z,98.93
2023-10-21T12:35:36.478Z,99.00
2023-10-21T12:38:06.967Z,99.05
2023-10-21T12:40:38.344Z,98.94
2023-10-21T12:43:16.860Z,99.27
2023-10-21T12:45:49.535Z,99.13
2023-10-21T12:48:19.592Z,99.00
2023-10-21T12:50:55.207Z,99.03
2023-10-21T12:53:21.477Z,99.29
2023-10-21T12:55:48.003Z,98.97
2023-10-21T12:58:14.738Z,99.08
2023-10-21T13:00:44.132Z,99.05
2023-10-21T13:03:11.506Z,99.14
2023-10-21T13:05:44.263Z,99.11
2023-10-21T13:08:10.858Z,99.09
2023-10-21T13:10:37.496Z,99.29
2023-10-21T13:13:05.508Z,99.33
2023-10-21T13:15:31.861Z,99.22
2023-10-21T13:17:58.238Z,99.37
2023-10-21T13:20:24.584Z,99.49
2023-10-21T13:22:55.091Z,99.29
2023-10-21T13:25:26.049Z,99.37
2023-10-21T13:27:56.333Z,99.32
2023-10-21T13:30:22.931Z,99.43
2023-10-21T13:32:51.365Z,99.31
2023-10-21T13:35:17.737Z,99.22
2023-10-21T13:37:46.223Z,99.29
2023-10-21T13:40:17.208Z,99.25
2023-10-21T13:42:46.015Z,99.25
2023-10-21T13:45:22.362Z,99.21
2023-10-21T13:48:01.836Z,99.03
2023-10-21T13:50:30.062Z,99.09
2023-10-21T13:53:02.601Z,98.86
2023-10-21T13:55:29.699Z,98.97
2023-10-21T13:57:55.962Z,98.70
2023-10-21T14:00:36.010Z,98.64
2023-10-21T14:03:20.313Z,98.71
2023-10-21T14:05:49.245Z,98.35
2023-10-21T14:08:17.902Z,98.73
2023-10-21T14:10:45.992Z,98.80
2023-10-21T14:13:15.848Z,98.74
2023-10-21T14:15:45.112Z,98.85
2023-10-21T14:18:11.862Z,98.84
2023-10-21T14:20:43.020Z,98.73
2023-10-21T14:23:18.724Z,98.74
2023-10-21T14:25:46.856Z,98.84
2023-10-21T14:28:14.349Z,98.95
2023-10-21T14:30:49.115Z,98.84
2023-10-21T14:33:17.763Z,98.90
2023-10-21T14:35:45.630Z,99.03
2023-10-21T14:38:12.810Z,98.84
2023-10-21T14:40:40.372Z,98.98
2023-10-21T14:43:08.764Z,98.90
2023-10-21T14:45:40.828Z,98.97
2023-10-21T14:48:10.187Z,98.95
2023-10-21T14:50:40.749Z,99.00
2023-10-21T14:53:11.114Z,98.97
2023-10-21T14:55:51.558Z,99.13
2023-10-21T14:58:24.303Z,99.23
2023-10-21T15:00:52.906Z,99.13
2023-10-21T15:03:22.773Z,99.29
2023-10-21T15:05:49.768Z,99.24
2023-10-21T15:08:21.101Z,99.35
2023-10-21T15:10:49.126Z,99.47
2023-10-21T15:13:15.762Z,99.49
2023-10-21T15:15:43.463Z,99.58
2023-10-21T15:18:10.659Z,99.52
2023-10-21T15:20:37.380Z,99.63
2023-10-21T15:23:04.019Z,99.57
2023-10-21T15:25:31.409Z,99.38
2023-10-21T15:27:57.924Z,99.51
2023-10-21T15:30:24.310Z,99.69
2023-10-21T15:32:51.051Z,99.64
2023-10-21T15:35:18.430Z,99.79
2023-10-21T15:37:45.820Z,99.83
2023-10-21T15:40:13.873Z,99.77
2023-10-21T15:42:43.470Z,99.82
2023-10-21T15:45:11.204Z,99.85
2023-10-21T15:47:37.522Z,99.93
2023-10-21T15:50:04.750Z,99.91
2023-10-21T15:52:32.422Z,99.79
2023-10-21T15:54:59.034Z,99.88
2023-10-21T15:57:25.819Z,99.95
2023-10-21T15:59:54.988Z,100.03
2023-10-21T16:02:21.644Z,100.04
2023-10-21T16:04:47.998Z,100.09
2023-10-21T16:07:15.026Z,99.98
2023-10-21T16:09:41.296Z,100.05
2023-10-21T16:12:07.715Z,100.08
2023-10-21T16:14:34.090Z,99.99
2023-10-21T16:17:01.841Z,100.00
2023-10-21T16:19:28.933Z,100.06
2023-10-21T16:21:55.243Z,100.06
2023-10-21T16:24:22.524Z,100.07
2023-10-21T16:26:48.939Z,100.00
2023-10-21T16:29:15.771Z,100.03
2023-10-21T16:31:42.884Z,99.97
2023-10-21T16:34:10.019Z,99.87
2023-10-21T16:36:36.656Z,99.90
2023-10-21T16:39:03.159Z,100.08
2023-10-21T16:41:29.665Z,99.85
2023-10-21T16:43:56.232Z,99.80
2023-10-21T16:46:23.766Z,99.88
2023-10-21T16:48:50.235Z,100.00
2023-10-21T16:51:16.520Z,99.80
2023-10-21T16:53:42.866Z,99.69
2023-10-21T16:56:10.120Z,99.55
2023-10-21T16:58:37.172Z,99.55
2023-10-21T17:01:05.233Z,99.47
2023-10-21T17:03:31.520Z,99.38
2023-10-21T17:06:00.840Z,99.31
2023-10-21T17:08:34.619Z,99.13
2023-10-21T17:11:02.242Z,99.06
2023-10-21T17:13:28.651Z,98.88
2023-10-21T17:15:55.206Z,98.71
2023-10-21T17:18:24.237Z,98.38
2023-10-21T17:20:50.628Z,98.52
2023-10-21T17:23:16.876Z,98.90
2023-10-21T17:25:44.831Z,98.48
2023-10-21T17:28:11.143Z,98.39
2023-10-21T17:30:37.537Z,98.55
2023-10-21T17:33:05.192Z,98.50
2023-10-21T17:35:31.636Z,98.45
2023-10-21T17:37:58.135Z,98.37
2023-10-21T17:40:24.391Z,98.16
2023-10-21T17:42:50.842Z,97.91
2023-10-21T17:45:17.413Z,97.74
2023-10-21T17:47:43.740Z,97.58
2023-10-21T17:50:10.362Z,97.40
2023-10-21T17:52:36.637Z,97.42
2023-10-21T17:55:05.661Z,97.26
2023-10-21T17:57:32.125Z,97.26
2023-10-21T17:59:58.685Z,97.08
2023-10-21T18:02:25.082Z,97.04
2023-10-21T18:04:54.433Z,96.78
2023-10-21T18:07:20.917Z,96.84
2023-10-21T18:09:47.237Z,96.65
2023-10-21T18:12:14.525Z,96.58
2023-10-21T18:14:40.918Z,96.54
2023-10-21T18:17:07.375Z,96.47
2023-10-21T18:19:33.963Z,96.20
2023-10-21T18:22:02.956Z,96.29
2023-10-21T18:24:29.591Z,96.16
2023-10-21T18:26:55.997Z,95.95
2023-10-21T18:29:22.332Z,95.83
2023-10-21T18:31:48.758Z,95.70
2023-10-21T18:34:15.092Z,95.81
2023-10-21T18:36:41.522Z,95.70
2023-10-21T18:39:08.578Z,95.66
2023-10-21T18:41:34.884Z,95.63
2023-10-21T18:44:01.286Z,95.53
2023-10-21T18:46:27.680Z,95.47
2023-10-21T18:48:54.250Z,95.29
2023-10-21T18:51:25.989Z,95.10
2023-10-21T18:53:52.499Z,95.11
2023-10-21T18:56:18.917Z,95.10
2023-10-21T18:58:45.477Z,94.92
2023-10-21T19:01:11.851Z,94.80
2023-10-21T19:03:38.392Z,94.43
2023-10-21T19:06:04.866Z,94.42
2023-10-21T19:08:31.897Z,94.30
2023-10-21T19:10:58.336Z,94.15
2023-10-21T19:13:24.827Z,94.23
2023-10-21T19:15:51.222Z,94.13
2023-10-21T19:18:17.748Z,94.00
2023-10-21T19:20:44.157Z,94.01
2023-10-21T19:23:10.684Z,93.81
2023-10-21T19:25:36.950Z,93.78
2023-10-21T19:28:03.479Z,93.78
2023-10-21T19:30:30.211Z,93.64
2023-10-21T19:32:56.884Z,93.56
2023-10-21T19:35:23.158Z,93.54
2023-10-21T19:37:49.955Z,93.34
2023-10-21T19:40:17.639Z,93.21
2023-10-21T19:42:44.977Z,93.27
2023-10-21T19:45:12.066Z,93.22
2023-10-21T19:47:38.869Z,93.14
2023-10-21T19:50:06.996Z,93.02
2023-10-21T19:52:33.478Z,93.03
2023-10-21T19:54:59.872Z,92.81
2023-10-21T19:57:26.291Z,92.98
2023-10-21T19:59:52.541Z,92.95
2023-10-21T20:02:18.963Z,92.80
2023-10-21T20:04:47.173Z,92.76
2023-10-21T20:07:13.567Z,92.79
2023-10-21T20:09:42.767Z,92.79
2023-10-21T20:12:09.180Z,92.66
2023-10-21T20:14:38.020Z,92.67
2023-10-21T20:17:04.423Z,92.73
2023-10-21T20:19:32.277Z,92.66
2023-10-21T20:22:00.849Z,92.47
2023-10-21T20:24:27.233Z,92.53
2023-10-21T20:26:53.569Z,92.59
2023-10-21T20:29:19.906Z,92.58
2023-10-21T20:31:47.429Z,92.57
2023-10-21T20:34:15.558Z,92.67
2023-10-21T20:36:41.781Z,92.68
2023-10-21T20:39:09.269Z,92.48
2023-10-21T20:41:39.878Z,92.83
2023-10-21T20:44:06.231Z,92.52
2023-10-21T20:46:32.498Z,92.63
2023-10-21T20:48:59.466Z,92.67
2023-10-21T20:51:26.137Z,92.56
2023-10-21T20:53:52.793Z,92.56
2023-10-21T20:56:25.238Z,92.36
2023-10-21T20:58:53.860Z,92.53
2023-10-21T21:01:30.967Z,92.24
2023-10-21T21:04:04.464Z,92.06
2023-10-21T21:06:30.707Z,92.21
2023-10-21T21:08:57.587Z,92.30
2023-10-21T21:11:24.203Z,92.08
2023-10-21T21:13:50.672Z,92.18
2023-10-21T21:16:17.092Z,92.04
2023-10-21T21:18:43.621Z,92.02
2023-10-21T21:21:09.856Z,92.10
2023-10-21T21:23:36.036Z,92.04
2023-10-21T21:26:03.672Z,91.91
2023-10-21T21:28:30.510Z,91.60
2023-10-21T21:30:57.832Z,91.70
2023-10-21T21:33:24.317Z,91.68
2023-10-21T21:36:17.558Z,91.58
2023-10-21T21:38:44.215Z,91.23
2023-10-21T21:41:15.810Z,91.24
2023-10-21T21:43:43.132Z,91.03
2023-10-21T21:46:20.140Z,90.98
2023-10-21T21:48:47.766Z,91.03
2023-10-21T21:51:14.628Z,90.78
2023-10-21T21:53:41.129Z,90.76
2023-10-21T21:56:07.498Z,90.94
2023-10-21T21:58:37.282Z,90.37
2023-10-21T22:01:07.039Z,90.24
2023-10-21T22:03:35.123Z,90.43
2023-10-21T22:06:02.129Z,90.35
2023-10-21T22:08:28.432Z,90.13
2023-10-21T22:10:54.848Z,90.16
2023-10-21T22:13:21.124Z,90.16
2023-10-21T22:15:50.228Z,90.16
2023-10-21T22:18:17.222Z,89.63
2023-10-21T22:20:43.512Z,89.72
2023-10-21T22:23:12.505Z,89.57
2023-10-21T22:25:39.310Z,90.10
2023-10-21T22:28:12.910Z,90.27
2023-10-21T22:30:41.356Z,90.40
2023-10-21T22:33:08.263Z,90.20
2023-10-21T22:35:34.911Z,89.85
2023-10-21T22:38:03.287Z,89.86
2023-10-21T22:40:29.819Z,89.89
2023-10-21T22:42:56.291Z,89.63
2023-10-21T22:45:23.043Z,89.54
2023-10-21T22:47:49.528Z,89.31
2023-10-21T22:50:18.193Z,89.21
2023-10-21T22:52:44.551Z,89.47
2023-10-21T22:55:11.983Z,89.18
2023-10-21T22:57:38.891Z,89.21
2023-10-21T23:00:14.231Z,89.38
2023-10-21T23:02:42.796Z,89.08
2023-10-21T23:05:11.032Z,88.80
2023-10-21T23:07:38.555Z,88.59
2023-10-21T23:10:21.980Z,88.50
2023-10-21T23:12:51.872Z,88.23
2023-10-21T23:15:20.266Z,88.69
2023-10-21T23:17:48.458Z,88.86
2023-10-21T23:20:16.839Z,88.93
2023-10-21T23:22:44.468Z,88.83
2023-10-21T23:25:11.341Z,88.84
2023-10-21T23:27:43.392Z,88.56
2023-10-21T23:30:11.817Z,88.44
2023-10-21T23:32:38.885Z,88.35
2023-10-21T23:35:06.358Z,88.41
2023-10-21T23:37:33.069Z,88.76
2023-10-21T23:39:59.671Z,88.28
2023-10-21T23:42:29.561Z,88.08
2023-10-21T23:44:58.709Z,88.21
2023-10-21T23:47:26.440Z,87.93
2023-10-21T23:49:56.742Z,88.11
2023-10-21T23:52:26.471Z,88.06
2023-10-21T23:54:53.600Z,87.96
2023-10-21T23:57:19.842Z,87.83
2023-10-21T23:59:46.231Z,87.73
